• Join FlightAware (Why Join?)
  • Login
  • US Flag 
Rudolph Flight #1: Arrived! 
05:34PM EST


 

Airport Tracker/Info


-or-


 

Live Flight TrackerFlight Track Log ✈ EJA922 ✈ 04-Sep-2013 ✈ KPKB - KPDK

Flight Track Log - Related Links

Times and Time Zones

All times are in EDT time to prevent confusion due to time zone crossing. See the EJA922 flight status page for this flight to view local times or setup timezone preferences in your user account.

Time Position Orientation Groundspeed Altitude Reporting Facility
EDT Latitude Longitude Course Direction KTS MPH feet Rate Location/Type
12:50PM 39.3111 -81.4586 204° Southwest 239 275 3,200  Level Indianapolis Center
12:51PM 39.2564 -81.5175 220° Southwest 257 296 7,200 3,600 Climbing Indianapolis Center
12:52PM 39.1958 -81.5814 219° Southwest 275 316 10,700 2,760 Climbing Indianapolis Center
12:53PM 39.1239 -81.6344 210° Southwest 295 339 13,000 2,040 Climbing Indianapolis Center
12:54PM 39.0383 -81.7017 211° Southwest 348 400 14,900 2,160 Climbing Indianapolis Center
12:55PM 38.9289 -81.7875 211° Southwest 384 442 17,500 2,220 Climbing Indianapolis Center
12:56PM 38.3516 -81.9934 204° Southwest  Level Estimated
12:56PM 38.8367 -81.8617 212° Southwest 394 453 19,500  Level Indianapolis Center
12:57PM 38.7425 -81.9356 211° Southwest 400 460 21,700 2,040 Climbing Indianapolis Center
12:58PM 38.6469 -82.0097 211° Southwest 405 466 23,800 1,860 Climbing Indianapolis Center
12:59PM 38.5489 -82.0856 211° Southwest 412 474 25,600 1,680 Climbing Indianapolis Center
01:01PM 38.4458 -82.1644 211° Southwest 429 494 27,300 1,800 Climbing Indianapolis Center
01:02PM 38.3172 -82.2628 211° Southwest 448 516 29,400 1,800 Climbing Indianapolis Center
01:03PM 38.1947 -82.3208 200° South 471 542 31,100 1,620 Climbing Indianapolis Center
01:04PM 38.0558 -82.3650 194° South 480 552 32,800 1,320 Climbing Indianapolis Center
01:05PM 37.9208 -82.4069 194° South 496 571 33,900 540 Climbing Indianapolis Center
01:06PM 37.7792 -82.4508 194° South 517 595 34,000  Climbing Indianapolis Center
01:07PM 37.6331 -82.4956 194° South 535 616 34,000  Level Indianapolis Center
01:08PM 37.4903 -82.5389 194° South 527 606 34,000  Level Indianapolis Center
01:09PM 37.3500 -82.5831 194° South 520 598 34,000  Level Indianapolis Center
01:10PM 37.2092 -82.6256 194° South 517 595 34,000  Level Indianapolis Center
01:11PM 37.0686 -82.6686 194° South 516 594 34,000  Level Indianapolis Center
01:12PM 36.9269 -82.7097 193° South 513 590 34,000  Level Indianapolis Center
01:13PM 36.7589 -82.7608 194° South 518 596 34,000  Level Indianapolis Center
01:14PM 36.6228 -82.8167 198° South 511 588 34,000  Level Indianapolis Center
01:15PM 36.4942 -82.8906 205° Southwest 506 582 34,000  Level Indianapolis Center
01:16PM 36.3644 -82.9633 204° Southwest 508 585 34,000  Level Indianapolis Center
01:17PM 36.2353 -83.0350 204° Southwest 507 583 34,000  Level Indianapolis Center
01:18PM 36.0550 -83.1372 205° Southwest 512 589 34,000  Level Atlanta Center
01:19PM 35.9242 -83.2081 204° Southwest 512 589 34,000  Level Atlanta Center
01:20PM 35.7972 -83.2808 205° Southwest 512 589 34,000  Level Atlanta Center
01:21PM 35.6664 -83.3511 204° Southwest 512 589 34,000 -540 Level Atlanta Center
01:22PM 35.5372 -83.4211 204° Southwest 512 589 33,000 -1,560 Descending Atlanta Center
01:23PM 35.4103 -83.4883 203° Southwest 512 589 30,900 -2,460 Descending Atlanta Center
01:24PM 35.2772 -83.5606 204° Southwest 512 589 28,100 -2,460 Descending Atlanta Center
01:25PM 35.1500 -83.6297 204° Southwest 512 589 26,000 -1,080 Descending Atlanta Center
01:26PM 35.0250 -83.6964 204° Southwest 507 583 26,000  Level Atlanta Center
01:27PM 34.9125 -83.7550 203° Southwest 501 577 26,000 -360 Level Atlanta Center
01:28PM 34.7917 -83.8136 202° Southwest 479 551 25,300 -960 Descending Atlanta Center
01:29PM 34.6853 -83.8744 205° Southwest 474 545 24,100 -2,940 Descending Atlanta Center
01:30PM 34.5414 -83.9506 204° Southwest 479 551 19,500 -4,500 Descending Atlanta Center
01:31PM 34.4328 -84.0111 205° Southwest 457 526 15,100 -3,840 Descending Atlanta Center
01:32PM 34.3306 -84.0361 191° South 422 486 11,900 -2,580 Descending Atlanta Center
01:33PM 34.2556 -83.9886 152° Southeast 309 356 10,000 -1,980 Descending Atlanta Center
01:34PM 34.1844 -83.9911 182° South 270 311 8,000 -1,320 Descending Atlanta Center
01:35PM 34.1367 -84.0414 221° Southwest 239 275 7,400 -1,080 Descending Atlanta Center
01:36PM 34.0906 -84.0864 219° Southwest 224 258 5,900 -1,500 Descending Atlanta Center
01:37PM 34.0364 -84.1139 203° Southwest 212 244 4,400 -960 Descending Atlanta Center
01:38PM 33.9861 -84.1339 198° South 212 244 4,000 -240 Descending Atlanta Center
01:39PM 33.9278 -84.1514 194° South 212 244 4,000 -180 Level Atlanta Center
01:40PM 33.8756 -84.1739 200° South 217 250 3,700 -720 Descending Atlanta Center
01:41PM 33.8333 -84.2167 220° Southwest 169 194 2,500 -600 Descending Atlanta TRACON
01:42PM 33.8167 -84.2667 248° West 157 181 2,500 -480 Level Atlanta TRACON
01:43PM 33.8333 -84.3167 292° West 143 165 1,600 -900 Descending Atlanta TRACON
01:45PM 33.8667 -84.3000 209° Southwest  Level FlightAware Approximate
01:52PM 33.8756 -84.3020 209° Southwest  Level Estimated
01:53PM 33.8756 -84.3020 209° Southwest  Level Estimated